createdAt,value
2022-11-19T00:02:12.545Z,30.60
2022-11-19T00:05:51.857Z,38.30
2022-11-19T00:08:30.616Z,38.30
2022-11-19T00:15:40.140Z,32.60
2022-11-19T00:18:12.453Z,32.90
2022-11-19T00:20:44.554Z,31.30
2022-11-19T00:23:23.499Z,34.40
2022-11-19T00:25:57.224Z,45.00
2022-11-19T00:37:31.635Z,46.80
2022-11-19T00:40:03.898Z,46.60
2022-11-19T00:46:59.823Z,38.80
2022-11-19T00:49:51.913Z,43.80
2022-11-19T00:52:24.110Z,32.50
2022-11-19T00:54:56.260Z,30.30
2022-11-19T00:57:33.665Z,35.70
2022-11-19T01:00:07.140Z,40.40
2022-11-19T01:02:39.327Z,45.50
2022-11-19T01:05:18.091Z,39.90
2022-11-19T01:12:16.040Z,37.70
2022-11-19T01:15:15.122Z,34.60
2022-11-19T01:17:53.636Z,37.50
2022-11-19T01:20:26.253Z,33.80
2022-11-19T01:23:04.614Z,37.90
2022-11-19T01:25:37.264Z,36.10
2022-11-19T01:28:15.600Z,40.80
2022-11-19T01:30:48.048Z,39.70
2022-11-19T01:33:22.578Z,42.70
2022-11-19T01:36:44.182Z,48.80
2022-11-19T01:39:16.508Z,46.10
2022-11-19T01:41:55.601Z,48.10
2022-11-19T01:54:34.370Z,39.60
2022-11-19T02:10:05.171Z,35.90
2022-11-19T02:18:06.682Z,38.20
2022-11-19T02:41:37.886Z,38.90
2022-11-19T03:06:51.938Z,30.90
2022-11-19T03:10:21.008Z,30.40
2022-11-19T03:30:24.830Z,29.00
2022-11-19T03:32:59.274Z,35.60
2022-11-19T03:44:26.461Z,26.80
2022-11-19T03:59:48.951Z,26.90
2022-11-19T04:02:27.856Z,27.10
2022-11-19T04:09:53.299Z,25.80
2022-11-19T04:12:32.348Z,22.70
2022-11-19T04:15:04.705Z,23.50
2022-11-19T04:23:59.276Z,25.20
2022-11-19T04:26:31.434Z,23.90
2022-11-19T04:30:09.256Z,24.60
2022-11-19T04:32:47.877Z,28.30
2022-11-19T04:35:22.105Z,28.30
2022-11-19T04:38:18.836Z,25.20
2022-11-19T04:40:51.062Z,29.30
2022-11-19T04:43:30.257Z,24.80
2022-11-19T04:50:53.614Z,25.80
2022-11-19T04:53:31.887Z,26.90
2022-11-19T04:56:05.171Z,26.70
2022-11-19T04:58:37.919Z,26.50
2022-11-19T05:01:10.794Z,26.20
2022-11-19T05:05:12.337Z,30.20
2022-11-19T05:12:21.903Z,31.80
2022-11-19T05:14:54.037Z,32.50
2022-11-19T05:17:32.889Z,28.50
2022-11-19T05:20:05.452Z,25.90
2022-11-19T05:27:30.972Z,29.50
2022-11-19T05:30:12.839Z,28.80
2022-11-19T05:33:34.913Z,29.20
2022-11-19T05:36:16.668Z,28.20
2022-11-19T05:39:38.692Z,28.30
2022-11-19T05:42:17.902Z,29.30
2022-11-19T05:45:45.291Z,26.80
2022-11-19T05:48:17.524Z,26.20
2022-11-19T05:50:49.681Z,26.60
2022-11-19T05:53:22.168Z,25.90
2022-11-19T05:55:55.056Z,28.20
2022-11-19T05:58:27.237Z,31.70
2022-11-19T06:01:01.481Z,28.60
2022-11-19T06:03:47.896Z,31.10
2022-11-19T06:06:20.033Z,28.70
2022-11-19T06:08:52.956Z,28.90
2022-11-19T06:11:42.900Z,30.30
2022-11-19T06:14:15.511Z,27.80
2022-11-19T06:16:47.925Z,31.50
2022-11-19T06:19:20.607Z,29.90
2022-11-19T06:21:53.613Z,32.70
2022-11-19T06:24:25.914Z,28.80
2022-11-19T06:26:59.810Z,38.20
2022-11-19T06:29:31.962Z,68.80
2022-11-19T06:32:04.137Z,97.70
2022-11-19T06:34:36.246Z,103.40
2022-11-19T06:37:08.459Z,65.90
2022-11-19T06:39:40.747Z,46.10
2022-11-19T06:42:30.814Z,54.70
2022-11-19T06:45:03.048Z,40.70
2022-11-19T06:47:35.587Z,41.50
2022-11-19T06:50:10.292Z,57.10
2022-11-19T06:52:43.821Z,37.60
2022-11-19T06:55:15.977Z,46.50
2022-11-19T06:57:48.210Z,52.20
2022-11-19T07:00:21.280Z,44.80
2022-11-19T07:02:55.869Z,39.90
2022-11-19T07:05:28.128Z,39.30
2022-11-19T07:08:03.016Z,35.50
2022-11-19T07:10:35.685Z,37.30
2022-11-19T07:13:07.858Z,33.80
2022-11-19T07:15:40.091Z,46.00
2022-11-19T07:18:12.282Z,46.80
2022-11-19T07:20:45.967Z,44.90
2022-11-19T07:23:20.349Z,41.60
2022-11-19T07:25:53.246Z,46.50
2022-11-19T07:28:25.496Z,42.60
2022-11-19T07:30:57.592Z,36.20
2022-11-19T07:33:29.703Z,35.70
2022-11-19T07:36:01.763Z,41.20
2022-11-19T07:38:36.913Z,40.70
2022-11-19T07:41:29.716Z,38.40
2022-11-19T07:44:01.892Z,38.70
2022-11-19T07:46:37.153Z,37.30
2022-11-19T07:49:09.369Z,36.60
2022-11-19T07:51:41.640Z,34.80
2022-11-19T07:54:15.592Z,38.80
2022-11-19T07:56:48.130Z,36.90
2022-11-19T07:59:21.118Z,37.10
2022-11-19T08:01:53.829Z,31.70
2022-11-19T08:04:28.196Z,42.00
2022-11-19T08:07:00.447Z,49.10
2022-11-19T08:09:32.905Z,55.40
2022-11-19T08:12:05.354Z,46.10
2022-11-19T08:14:37.954Z,40.80
2022-11-19T08:17:28.491Z,43.30
2022-11-19T08:22:31.049Z,41.20
2022-11-19T08:25:03.491Z,34.00
2022-11-19T08:27:35.602Z,34.90
2022-11-19T08:30:09.859Z,34.90
2022-11-19T08:32:42.218Z,36.10
2022-11-19T08:35:14.549Z,41.00
2022-11-19T08:37:47.535Z,31.40
2022-11-19T08:40:20.658Z,31.20
2022-11-19T08:43:06.638Z,31.50
2022-11-19T08:45:40.627Z,29.70
2022-11-19T08:48:15.408Z,56.10
2022-11-19T08:50:47.755Z,30.90
2022-11-19T08:53:20.011Z,34.10
2022-11-19T08:55:54.658Z,29.70
2022-11-19T08:58:26.849Z,36.00
2022-11-19T09:00:59.094Z,32.90
2022-11-19T09:03:31.454Z,30.40
2022-11-19T09:06:03.726Z,29.90
2022-11-19T09:08:36.744Z,32.50
2022-11-19T09:11:15.124Z,26.80
2022-11-19T09:13:47.311Z,30.00
2022-11-19T09:16:19.509Z,31.50
2022-11-19T09:18:54.399Z,22.40
2022-11-19T09:21:27.078Z,22.40
2022-11-19T09:23:59.232Z,20.80
2022-11-19T09:26:31.488Z,23.80
2022-11-19T09:29:03.871Z,17.90
2022-11-19T09:31:35.967Z,15.40
2022-11-19T09:34:08.134Z,37.70
2022-11-19T09:36:40.534Z,20.70
2022-11-19T09:39:14.619Z,20.50
2022-11-19T09:41:53.302Z,21.70
2022-11-19T09:44:49.463Z,20.10
2022-11-19T09:47:33.718Z,20.30
2022-11-19T09:50:14.972Z,19.60
2022-11-19T09:52:50.284Z,20.40
2022-11-19T09:55:26.930Z,18.30
2022-11-19T09:58:00.561Z,16.90
2022-11-19T10:00:34.398Z,19.20
2022-11-19T10:03:15.959Z,14.90
2022-11-19T10:06:01.369Z,22.50
2022-11-19T10:08:45.966Z,18.50
2022-11-19T10:11:30.310Z,21.40
2022-11-19T10:14:18.853Z,16.10
2022-11-19T10:17:05.973Z,18.20
2022-11-19T10:19:52.179Z,21.60
2022-11-19T10:22:29.772Z,16.80
2022-11-19T10:25:17.688Z,21.20
2022-11-19T10:27:55.126Z,14.80
2022-11-19T10:30:30.914Z,14.90
2022-11-19T10:33:05.949Z,14.60
2022-11-19T10:35:46.966Z,14.90
2022-11-19T10:38:23.945Z,17.00
2022-11-19T10:40:59.835Z,16.40
2022-11-19T10:43:38.236Z,18.80
2022-11-19T10:46:16.371Z,18.30
2022-11-19T10:48:55.037Z,21.50
2022-11-19T10:51:31.265Z,21.90
2022-11-19T10:54:19.489Z,21.60
2022-11-19T10:56:53.519Z,19.80
2022-11-19T10:59:28.930Z,26.40
2022-11-19T11:02:04.659Z,20.10
2022-11-19T11:04:59.197Z,18.00
2022-11-19T11:07:50.324Z,17.20
2022-11-19T11:10:38.477Z,27.90
2022-11-19T11:13:36.526Z,17.10
2022-11-19T11:16:12.072Z,15.60
2022-11-19T11:18:44.585Z,13.90
2022-11-19T11:21:29.481Z,13.50
2022-11-19T11:24:04.945Z,19.30
2022-11-19T11:26:38.139Z,29.10
2022-11-19T11:29:28.194Z,26.50
2022-11-19T11:32:01.674Z,23.20
2022-11-19T11:34:37.900Z,25.00
2022-11-19T11:37:13.225Z,16.20
2022-11-19T11:39:53.515Z,18.00
2022-11-19T11:42:28.749Z,23.60
2022-11-19T11:45:02.717Z,17.30
2022-11-19T11:47:40.780Z,21.90
2022-11-19T11:50:19.313Z,22.60
2022-11-19T11:52:53.421Z,23.30
2022-11-19T11:55:34.690Z,35.20
2022-11-19T11:58:32.536Z,60.20
2022-11-19T12:01:16.212Z,43.00
2022-11-19T12:03:59.740Z,39.90
2022-11-19T12:06:41.642Z,42.40
2022-11-19T12:09:22.612Z,28.70
2022-11-19T12:12:01.767Z,26.40
2022-11-19T12:14:38.792Z,45.00
2022-11-19T12:17:26.574Z,122.00
2022-11-19T12:20:12.393Z,32.30
2022-11-19T12:22:59.340Z,17.60
2022-11-19T12:25:37.821Z,38.10
2022-11-19T12:28:29.508Z,23.40
2022-11-19T12:31:12.998Z,41.60
2022-11-19T12:34:03.103Z,42.20
2022-11-19T12:36:48.505Z,17.20
2022-11-19T12:39:38.713Z,15.30
2022-11-19T12:42:26.546Z,29.50
2022-11-19T12:45:13.729Z,27.70
2022-11-19T12:48:05.194Z,31.30
2022-11-19T12:50:46.823Z,33.90
2022-11-19T12:53:29.777Z,24.00
2022-11-19T12:56:14.830Z,31.10
2022-11-19T12:58:56.305Z,26.90
2022-11-19T13:01:33.988Z,39.00
2022-11-19T13:04:13.092Z,30.70
2022-11-19T13:06:50.811Z,26.20
2022-11-19T13:09:33.326Z,26.40
2022-11-19T13:15:22.491Z,19.70
2022-11-19T13:17:57.797Z,18.30
2022-11-19T13:20:35.252Z,17.50
2022-11-19T13:23:08.294Z,17.70
2022-11-19T13:25:44.454Z,19.10
2022-11-19T13:28:23.707Z,12.10
2022-11-19T13:31:01.520Z,13.00
2022-11-19T13:33:43.515Z,16.20
2022-11-19T13:36:20.976Z,14.30
2022-11-19T13:38:56.861Z,12.20
2022-11-19T13:41:32.875Z,29.60
2022-11-19T13:44:23.433Z,59.70
2022-11-19T13:47:00.784Z,33.90
2022-11-19T13:49:37.667Z,42.20
2022-11-19T13:52:21.387Z,42.60
2022-11-19T13:54:56.791Z,30.80
2022-11-19T13:57:34.563Z,32.70
2022-11-19T14:00:10.082Z,35.00
2022-11-19T14:03:14.969Z,58.70
2022-11-19T14:06:17.322Z,44.30
2022-11-19T14:09:02.826Z,37.90
2022-11-19T14:11:59.377Z,48.20
2022-11-19T14:15:03.648Z,58.80
2022-11-19T14:18:01.822Z,38.90
2022-11-19T14:21:01.640Z,29.00
2022-11-19T14:24:08.068Z,20.80
2022-11-19T14:27:16.864Z,24.00
2022-11-19T14:29:57.844Z,25.40
2022-11-19T14:32:36.931Z,23.70
2022-11-19T14:35:41.665Z,21.50
2022-11-19T14:38:35.618Z,23.80
2022-11-19T14:41:26.537Z,18.90
2022-11-19T14:44:11.853Z,26.30
2022-11-19T14:46:49.573Z,19.30
2022-11-19T14:49:31.345Z,20.60
2022-11-19T14:52:04.298Z,24.10
2022-11-19T14:54:41.202Z,18.00
2022-11-19T14:57:26.552Z,25.60
2022-11-19T15:00:02.792Z,20.30
2022-11-19T15:02:39.637Z,21.50
2022-11-19T15:05:20.885Z,23.10
2022-11-19T15:08:13.691Z,22.50
2022-11-19T15:11:06.826Z,23.40
2022-11-19T15:13:40.775Z,32.60
2022-11-19T15:16:16.687Z,27.30
2022-11-19T15:19:21.113Z,30.70
2022-11-19T15:22:25.456Z,33.10
2022-11-19T15:25:20.352Z,31.20
2022-11-19T15:28:07.760Z,31.20
2022-11-19T15:30:53.677Z,30.10
2022-11-19T15:33:47.714Z,26.90
2022-11-19T15:36:32.975Z,27.00
2022-11-19T15:39:13.852Z,25.20
2022-11-19T15:42:01.400Z,21.90
2022-11-19T15:44:39.429Z,25.10
2022-11-19T15:47:19.139Z,22.30
2022-11-19T15:49:52.943Z,22.90
2022-11-19T15:52:30.624Z,25.40
2022-11-19T15:55:21.005Z,27.80
2022-11-19T15:57:56.334Z,28.20
2022-11-19T16:00:29.960Z,24.50
2022-11-19T16:03:04.653Z,32.60
2022-11-19T16:05:36.835Z,26.10
2022-11-19T16:08:13.638Z,31.60
2022-11-19T16:11:09.617Z,32.80
2022-11-19T16:13:59.330Z,33.70
2022-11-19T16:16:51.092Z,28.30
2022-11-19T16:19:23.558Z,63.60
2022-11-19T16:22:00.910Z,39.30
2022-11-19T16:28:09.299Z,28.30
2022-11-19T16:30:49.602Z,33.70
2022-11-19T16:33:23.560Z,30.20
2022-11-19T16:36:13.675Z,29.60
2022-11-19T16:38:50.128Z,31.10
2022-11-19T16:41:58.476Z,34.40
2022-11-19T16:44:35.584Z,41.90
2022-11-19T16:47:21.170Z,35.60
2022-11-19T16:50:03.597Z,36.70
2022-11-19T16:52:44.460Z,35.40
2022-11-19T16:55:42.990Z,39.60
2022-11-19T16:58:29.272Z,35.20
2022-11-19T17:01:01.847Z,43.50
2022-11-19T17:03:44.278Z,53.20
2022-11-19T17:06:25.751Z,72.00
2022-11-19T17:09:02.515Z,76.50
2022-11-19T17:12:08.849Z,84.60
2022-11-19T17:14:56.959Z,71.30
2022-11-19T17:17:41.506Z,70.70
2022-11-19T17:21:00.035Z,68.20
2022-11-19T17:23:34.304Z,65.20
2022-11-19T17:26:10.255Z,53.90
2022-11-19T17:28:51.280Z,61.30
2022-11-19T17:31:27.194Z,60.40
2022-11-19T17:37:35.179Z,61.40
2022-11-19T17:40:35.173Z,65.40
2022-11-19T17:44:15.903Z,62.10
2022-11-19T17:46:47.956Z,52.80
2022-11-19T17:49:20.067Z,63.00
2022-11-19T17:56:52.004Z,58.20
2022-11-19T18:00:06.547Z,55.10
2022-11-19T18:06:55.283Z,59.20
2022-11-19T18:10:01.064Z,65.60
2022-11-19T18:12:38.070Z,65.90
2022-11-19T18:15:28.202Z,59.30
2022-11-19T18:18:01.397Z,73.50
2022-11-19T18:20:33.507Z,66.90
2022-11-19T18:27:48.583Z,75.20
2022-11-19T18:30:20.862Z,73.80
2022-11-19T18:43:39.933Z,70.10
2022-11-19T18:46:12.380Z,67.10
2022-11-19T18:48:44.809Z,73.20
2022-11-19T18:51:17.168Z,68.20
2022-11-19T18:53:49.539Z,73.00
2022-11-19T18:56:22.104Z,85.50
2022-11-19T18:58:54.361Z,68.90
2022-11-19T19:01:26.605Z,74.20
2022-11-19T19:03:58.970Z,68.50
2022-11-19T19:06:31.279Z,65.90
2022-11-19T19:09:03.935Z,71.60
2022-11-19T19:11:53.878Z,74.40
2022-11-19T19:14:26.156Z,77.50
2022-11-19T19:16:58.305Z,93.90
2022-11-19T19:19:30.506Z,91.10
2022-11-19T19:22:02.979Z,79.50
2022-11-19T19:27:46.682Z,86.20
2022-11-19T19:30:19.083Z,82.80
2022-11-19T19:32:51.372Z,81.50
2022-11-19T19:35:23.504Z,90.90
2022-11-19T19:37:55.715Z,85.60
2022-11-19T19:40:27.812Z,86.50
2022-11-19T19:43:03.200Z,100.30
2022-11-19T19:45:35.992Z,91.20
2022-11-19T19:48:09.003Z,94.90
2022-11-19T19:50:41.395Z,92.00
2022-11-19T19:53:14.529Z,95.60
2022-11-19T19:55:46.855Z,98.40
2022-11-19T19:58:27.771Z,108.60
2022-11-19T20:01:07.279Z,91.10
2022-11-19T20:03:40.264Z,98.50
2022-11-19T20:06:14.445Z,97.60
2022-11-19T20:08:46.639Z,103.00
2022-11-19T20:11:20.966Z,96.70
2022-11-19T20:13:54.229Z,105.80
2022-11-19T20:16:28.768Z,106.20
2022-11-19T20:19:02.574Z,91.90
2022-11-19T20:21:36.593Z,107.40
2022-11-19T20:24:12.895Z,108.40
2022-11-19T20:26:48.470Z,112.80
2022-11-19T20:29:22.305Z,121.20
2022-11-19T20:31:54.715Z,104.50
2022-11-19T20:34:27.028Z,100.40
2022-11-19T20:36:59.113Z,100.10
2022-11-19T20:39:31.737Z,91.20
2022-11-19T20:42:21.333Z,93.60
2022-11-19T20:44:53.604Z,98.10
2022-11-19T20:47:26.142Z,96.60
2022-11-19T20:49:58.332Z,108.30
2022-11-19T20:52:30.539Z,97.50
2022-11-19T20:55:06.673Z,104.00
2022-11-19T20:57:39.207Z,107.70
2022-11-19T21:00:14.025Z,103.30
2022-11-19T21:02:46.157Z,99.60
2022-11-19T21:05:18.588Z,98.70
2022-11-19T21:07:50.707Z,98.30
2022-11-19T21:10:26.898Z,102.40
2022-11-19T21:13:05.301Z,97.60
2022-11-19T21:15:37.973Z,93.10
2022-11-19T21:18:10.141Z,103.40
2022-11-19T21:20:42.553Z,103.60
2022-11-19T21:23:14.653Z,90.60
2022-11-19T21:25:46.965Z,97.70
2022-11-19T21:28:19.122Z,102.30
2022-11-19T21:30:55.097Z,103.30
2022-11-19T21:33:27.635Z,111.00
2022-11-19T21:36:03.677Z,107.00
2022-11-19T21:38:35.978Z,109.90
2022-11-19T21:41:08.996Z,120.80
2022-11-19T21:43:41.170Z,117.80
2022-11-19T21:46:13.633Z,110.50
2022-11-19T21:48:45.764Z,102.80
2022-11-19T21:51:24.337Z,120.10
2022-11-19T21:54:01.113Z,113.10
2022-11-19T21:56:38.276Z,121.20
2022-11-19T21:59:11.175Z,128.10
2022-11-19T22:01:43.307Z,115.80
2022-11-19T22:04:15.672Z,119.00
2022-11-19T22:06:50.790Z,118.10
2022-11-19T22:09:23.280Z,112.20
2022-11-19T22:11:55.532Z,106.40
2022-11-19T22:14:28.060Z,116.50
2022-11-19T22:17:00.443Z,126.30
2022-11-19T22:19:33.204Z,121.00
2022-11-19T22:22:05.506Z,103.90
2022-11-19T22:24:37.583Z,123.90
2022-11-19T22:27:09.783Z,119.00
2022-11-19T22:29:42.200Z,117.60
2022-11-19T22:32:15.739Z,120.90
2022-11-19T22:34:47.878Z,122.50
2022-11-19T22:37:20.081Z,138.70
2022-11-19T22:39:52.193Z,135.10
2022-11-19T22:42:24.346Z,145.60
2022-11-19T22:44:56.482Z,134.40
2022-11-19T22:47:28.538Z,135.70
2022-11-19T22:50:00.987Z,132.20
2022-11-19T22:52:33.092Z,144.10
2022-11-19T22:55:05.330Z,145.00
2022-11-19T22:57:37.414Z,131.90
2022-11-19T23:00:15.071Z,130.10
2022-11-19T23:02:50.177Z,122.40
2022-11-19T23:05:22.345Z,132.00
2022-11-19T23:07:59.415Z,145.60
2022-11-19T23:10:32.970Z,130.10
2022-11-19T23:13:23.070Z,131.50
2022-11-19T23:16:15.551Z,132.80
2022-11-19T23:18:51.570Z,114.00
2022-11-19T23:21:25.798Z,136.30
2022-11-19T23:23:59.854Z,133.20
2022-11-19T23:26:33.555Z,137.50
2022-11-19T23:29:06.763Z,118.40
2022-11-19T23:31:41.048Z,131.10
2022-11-19T23:34:13.161Z,130.40
2022-11-19T23:36:45.292Z,142.00
2022-11-19T23:39:19.333Z,128.60
2022-11-19T23:45:07.652Z,151.90
2022-11-19T23:47:40.535Z,163.40
2022-11-19T23:50:13.022Z,170.50
2022-11-19T23:52:45.200Z,220.00
2022-11-19T23:55:18.381Z,186.20
2022-11-19T23:57:50.444Z,183.40
